»·PEaware :: CPA845 KPDX-CYVR

CPA845 :: KPDX-CYVR

FLIGHT INFORMATION

Flight Status: Arrived
Operator:
Cathay Pacific Airways
More flights by this operator :: More flights under this callsign
Pilot: Max W. (2591)
Aircraft: BOEING 777-300
(B773)
More flights by this aircraft type
Origin: KPDX Portland Intl
United States
Destination: CYVR Vancouver Intl
Canada
More flights between these airports :: More routes between these airports
Route: +BTG J1 SEA PAE GRIZZ5
File this flight plan on PilotEdge
Remarks:
Altitude:
(Current/Filed)
27,000ft
Speed:
(Current/Filed)
450kts
Departed: 17-Dec-17 07:28 PM
Arrived: 17-Dec-17 08:20 PM
Distance/Time
Traveled:
217nm/0:52
Distance/Time
To Go:
Arrived

Flight Plot

Page will automatically refresh every two minutes.

Flight plan parsing failed; only flown route is shown


Map Options




Map Legend


Flown Route
Filed Route
Departure Airport
Arrival Airport
Navaid (VOR, NDB)
Fix

Horizontal Profiles

Position Reports

Time Latitude Longitude Heading Altitude Ground
Speed
17-Dec-17 19:04 45.589440 -122.598895 30 31ft 0kts
17-Dec-17 19:05 45.589440 -122.598895 30 31ft 0kts
17-Dec-17 19:06 45.589440 -122.598895 30 31ft 0kts
17-Dec-17 19:07 45.589440 -122.598895 30 31ft 0kts
17-Dec-17 19:08 45.589440 -122.598895 30 31ft 0kts
17-Dec-17 19:09 45.589440 -122.598895 30 31ft 0kts
17-Dec-17 19:10 45.589440 -122.598895 30 31ft 0kts
17-Dec-17 19:11 45.589440 -122.598895 30 31ft 0kts
17-Dec-17 19:12 45.589440 -122.598895 30 31ft 0kts
17-Dec-17 19:13 45.589440 -122.598895 30 31ft 0kts
17-Dec-17 19:14 45.589440 -122.598895 30 31ft 0kts
17-Dec-17 19:15 45.589440 -122.598895 30 31ft 0kts
17-Dec-17 19:16 45.589440 -122.598895 30 31ft 0kts
17-Dec-17 19:17 45.589440 -122.598895 30 31ft 0kts
17-Dec-17 19:18 45.589440 -122.598895 30 31ft 0kts
17-Dec-17 19:19 45.589440 -122.598895 30 31ft 0kts
17-Dec-17 19:20 45.589440 -122.598895 30 31ft 0kts
17-Dec-17 19:21 45.589440 -122.598895 30 31ft 0kts
17-Dec-17 19:22 45.589440 -122.598895 30 31ft 0kts
17-Dec-17 19:23 45.589440 -122.598895 30 31ft 0kts
17-Dec-17 19:24 45.589440 -122.598895 30 31ft 0kts
17-Dec-17 19:25 45.589440 -122.598895 30 31ft 0kts
17-Dec-17 19:26 45.588901 -122.599091 342 31ft 2kts
17-Dec-17 19:27 45.588641 -122.598849 311 31ft 0kts
17-Dec-17 19:28 45.588641 -122.598849 311 31ft 0kts
17-Dec-17 19:29 45.588642 -122.598850 311 31ft 0kts
17-Dec-17 19:30 45.589720 -122.604124 313 31ft 25kts
17-Dec-17 19:31 45.594104 -122.613810 299 31ft 29kts
17-Dec-17 19:32 45.596282 -122.619577 288 31ft 0kts
17-Dec-17 19:33 45.594748 -122.620459 118 31ft 0kts
17-Dec-17 19:34 45.581139 -122.585546 119 434ft 196kts
17-Dec-17 19:35 45.555120 -122.510263 100 3455ft 250kts
17-Dec-17 19:36 45.602483 -122.444727 351 7045ft 272kts
17-Dec-17 19:37 45.664737 -122.500030 317 11166ft 266kts
17-Dec-17 19:38 45.731400 -122.569266 331 13447ft 339kts
17-Dec-17 19:39 45.833227 -122.577544 357 16583ft 388kts
17-Dec-17 19:40 45.943620 -122.559896 359 19859ft 408kts
17-Dec-17 19:41 46.058828 -122.540783 358 22791ft 425kts
17-Dec-17 19:42 46.179921 -122.520974 357 25421ft 445kts
17-Dec-17 19:43 46.303396 -122.500665 357 27209ft 443kts
17-Dec-17 19:44 46.425586 -122.480433 357 27171ft 443kts
17-Dec-17 19:45 46.548226 -122.460109 357 27159ft 442kts
17-Dec-17 19:46 46.670393 -122.439666 357 27127ft 442kts
17-Dec-17 19:47 46.795398 -122.418632 357 27115ft 462kts
17-Dec-17 19:48 46.923109 -122.397063 357 27105ft 460kts
17-Dec-17 19:49 47.050326 -122.375443 356 27100ft 461kts
17-Dec-17 19:50 47.177503 -122.353930 356 27098ft 460kts
17-Dec-17 19:51 47.304427 -122.332186 356 27090ft 459kts
17-Dec-17 19:52 47.431181 -122.310357 356 27080ft 458kts
17-Dec-17 19:53 47.557081 -122.301001 351 27071ft 451kts
17-Dec-17 19:54 47.682415 -122.293490 351 27066ft 451kts
17-Dec-17 19:55 47.805211 -122.285394 350 27048ft 418kts
17-Dec-17 19:56 47.915880 -122.280244 343 25892ft 378kts
17-Dec-17 19:57 48.016528 -122.305309 337 24104ft 360kts
17-Dec-17 19:58 48.113667 -122.333895 337 22376ft 352kts
17-Dec-17 19:59 48.208972 -122.361717 338 20672ft 344kts
17-Dec-17 20:00 48.304311 -122.389223 339 18922ft 357kts
17-Dec-17 20:01 48.402190 -122.417959 339 17117ft 354kts
17-Dec-17 20:02 48.497472 -122.446054 339 15361ft 345kts
17-Dec-17 20:03 48.590915 -122.473595 340 13594ft 339kts
17-Dec-17 20:04 48.681381 -122.505365 323 11974ft 318kts
17-Dec-17 20:05 48.737633 -122.606237 299 9950ft 317kts
17-Dec-17 20:06 48.781581 -122.707512 299 9067ft 264kts
17-Dec-17 20:07 48.821592 -122.800238 299 7937ft 259kts
17-Dec-17 20:08 48.861211 -122.892381 299 6698ft 262kts
17-Dec-17 20:09 48.900066 -122.982922 298 5796ft 253kts
17-Dec-17 20:10 48.938427 -123.072654 299 4721ft 252kts
17-Dec-17 20:11 48.976496 -123.161908 300 3680ft 251kts
17-Dec-17 20:12 49.014701 -123.250439 300 2996ft 239kts
17-Dec-17 20:13 49.048517 -123.330487 300 2995ft 217kts
17-Dec-17 20:14 49.081285 -123.408476 300 3003ft 219kts
17-Dec-17 20:15 49.110713 -123.489715 289 3001ft 217kts
17-Dec-17 20:16 49.126922 -123.577487 280 3002ft 216kts
17-Dec-17 20:17 49.144613 -123.664172 313 2990ft 220kts
17-Dec-17 20:18 49.202631 -123.672764 15 2995ft 207kts
17-Dec-17 20:19 49.236825 -123.609993 84 2978ft 199kts
17-Dec-17 20:20 49.226616 -123.526932 102 3000ft 198kts
17-Dec-17 20:21 49.216906 -123.443907 101 2999ft 198kts
17-Dec-17 20:22 49.207739 -123.363258 100 2052ft 176kts
17-Dec-17 20:23 49.200286 -123.297636 98 1245ft 143kts
17-Dec-17 20:24 49.193549 -123.238386 98 449ft 141kts
17-Dec-17 20:25 49.187442 -123.184603 100 28ft 63kts
17-Dec-17 20:26 49.187635 -123.172814 55 27ft 0kts
17-Dec-17 20:27 49.188533 -123.175577 278 27ft 11kts
17-Dec-17 20:28 49.189268 -123.182099 279 27ft 21kts
17-Dec-17 20:29 49.191505 -123.185126 145 27ft 11kts
17-Dec-17 20:30 49.191964 -123.182696 5 27ft 1kts
17-Dec-17 20:31 49.192037 -123.182684 5 27ft 0kts
17-Dec-17 20:32 49.192037 -123.182684 5 27ft 0kts
17-Dec-17 20:33 49.192037 -123.182684 5 27ft 0kts
17-Dec-17 20:34 49.192037 -123.182684 5 27ft 0kts
17-Dec-17 20:35 49.192037 -123.182684 5 27ft 0kts

Navigation Log

Ident Type
Flight plan parsing failed, navigation log unavailable